Time;durP1;ratioP1;P1;durP2;ratioP2;P2;SDS_P1;SDS_P2;PMS_P1;PMS_P2;Temp;Humidity;BMP_temperature;BMP_pressure;BME280_temperature;BME280_humidity;BME280_pressure;Samples;Min_cycle;Max_cycle;Signal;HPM_P1;HPM_P2
2022/12/17 13:08:02;;;;;;;;;;;-2.90;99.90;;;;;;5023173;28;19925;-63
2022/12/17 13:10:30;;;;;;;;;;;-2.80;99.90;;;;;;5010190;28;19948;-62
2022/12/17 13:13:00;;;;;;;;;;;-2.70;99.90;;;;;;5014179;28;19935;-64
2022/12/17 13:15:32;;;;;;;;;;;-2.70;99.90;;;;;;5019946;28;19936;-64
2022/12/17 13:18:07;;;;;;;;;;;-2.70;99.90;;;;;;4995271;28;19988;-63
2022/12/17 13:20:35;;;;;;;;;;;-2.80;99.90;;;;;;5021811;28;20082;-63
2022/12/17 13:23:17;;;;;;;;;;;-2.80;99.90;;;;;;5014155;28;20043;-63
2022/12/17 13:25:45;;;;;;;;;;;-2.90;99.90;;;;;;4997015;28;20024;-64
2022/12/17 13:28:27;;;;;;;;;;;-3.00;99.90;;;;;;5014636;28;19926;-63
2022/12/17 13:31:02;;;;;;;;;;;-3.10;99.90;;;;;;5013704;28;19925;-63
2022/12/17 13:33:33;;;;;;;;;;;-3.10;99.90;;;;;;5014341;28;19932;-63
2022/12/17 13:36:06;;;;;;;;;;;-3.20;99.90;;;;;;5005389;28;19925;-63
2022/12/17 13:38:40;;;;;;;;;;;-3.10;99.90;;;;;;5013710;28;19925;-64
2022/12/17 13:41:09;;;;;;;;;;;-3.00;99.90;;;;;;5013479;28;20461;-63
2022/12/17 13:43:43;;;;;;;;;;;-3.00;99.90;;;;;;5014432;28;19925;-63
2022/12/17 13:46:18;;;;;;;;;;;-3.20;99.90;;;;;;5014414;28;19926;-63
2022/12/17 13:48:53;;;;;;;;;;;-3.20;99.90;;;;;;5018378;28;19925;-63
2022/12/17 13:51:22;;;;;;;;;;;-3.30;99.90;;;;;;5018966;28;19930;-63
2022/12/17 13:53:53;;;;;;;;;;;-3.50;99.90;;;;;;5013855;28;19932;-63
2022/12/17 13:56:25;;;;;;;;;;;-3.40;99.90;;;;;;5025986;28;19925;-63
2022/12/17 13:58:54;;;;;;;;;;;-3.60;99.90;;;;;;5033475;28;19952;-63
2022/12/17 14:01:22;;;;;;;;;;;-3.60;99.90;;;;;;5032777;28;20298;-63
2022/12/17 14:03:51;;;;;;;;;;;-3.60;99.90;;;;;;5030860;28;20416;-63
2022/12/17 14:06:37;;;;;;;;;;;-3.70;99.90;;;;;;5013359;28;19932;-63
2022/12/17 14:09:05;;;;;;;;;;;-3.70;99.90;;;;;;5013749;28;19932;-63
2022/12/17 14:14:22;;;;;;;;;;;-3.80;99.90;;;;;;5013677;28;20031;-63
2022/12/17 14:16:50;;;;;;;;;;;-3.90;99.90;;;;;;5013733;28;19932;-63
2022/12/17 14:19:18;;;;;;;;;;;-4.00;99.90;;;;;;5011290;28;20331;-63
2022/12/17 14:21:48;;;;;;;;;;;-4.10;99.90;;;;;;5018260;28;19929;-63
2022/12/17 14:24:17;;;;;;;;;;;-4.20;99.90;;;;;;5013041;28;20031;-63
2022/12/17 14:26:48;;;;;;;;;;;-4.10;99.90;;;;;;5013279;28;19929;-63
2022/12/17 14:29:21;;;;;;;;;;;-4.10;99.90;;;;;;5013309;28;19926;-63
2022/12/17 14:31:52;;;;;;;;;;;-4.00;99.90;;;;;;5012930;28;20034;-63
2022/12/17 14:34:20;;;;;;;;;;;-4.00;99.90;;;;;;5012942;28;19926;-63
2022/12/17 14:36:53;;;;;;;;;;;-4.10;99.90;;;;;;5013058;28;20298;-63
2022/12/17 14:39:23;;;;;;;;;;;-4.10;99.90;;;;;;5012988;28;19941;-63
2022/12/17 14:44:40;;;;;;;;;;;-4.10;99.90;;;;;;5013232;28;19926;-63
2022/12/17 14:47:11;;;;;;;;;;;-4.00;99.90;;;;;;5012682;28;20058;-63
2022/12/17 14:49:47;;;;;;;;;;;-3.90;99.90;;;;;;5019780;28;20421;-62
2022/12/17 14:52:26;;;;;;;;;;;-3.90;99.90;;;;;;5028363;28;19965;-63
2022/12/17 14:54:54;;;;;;;;;;;-4.10;99.90;;;;;;5026245;28;19932;-63
2022/12/17 14:57:22;;;;;;;;;;;-4.20;99.90;;;;;;5012855;28;19932;-63
2022/12/17 14:59:51;;;;;;;;;;;-4.30;99.90;;;;;;5011691;28;19955;-63
2022/12/17 15:02:22;;;;;;;;;;;-4.40;99.90;;;;;;5012293;28;19995;-63
2022/12/17 15:04:51;;;;;;;;;;;-4.50;99.90;;;;;;5012523;28;20326;-63
2022/12/17 15:07:22;;;;;;;;;;;-4.50;99.90;;;;;;5012652;28;19936;-63
2022/12/17 15:09:51;;;;;;;;;;;-4.50;99.90;;;;;;5011947;28;19964;-64
2022/12/17 15:12:19;;;;;;;;;;;-4.60;99.90;;;;;;5012212;28;19936;-63
2022/12/17 15:14:47;;;;;;;;;;;-4.70;99.90;;;;;;5012287;28;19944;-63
2022/12/17 15:17:15;;;;;;;;;;;-4.70;99.90;;;;;;5011967;28;19932;-63
2022/12/17 15:19:43;;;;;;;;;;;-4.80;99.90;;;;;;5019294;28;20391;-63
2022/12/17 15:22:14;;;;;;;;;;;-4.80;99.90;;;;;;5020722;28;19931;-63
2022/12/17 15:24:42;;;;;;;;;;;-4.80;99.90;;;;;;5032272;28;19929;-63
2022/12/17 15:27:13;;;;;;;;;;;-4.70;99.90;;;;;;5031837;28;19929;-63
2022/12/17 15:29:40;;;;;;;;;;;-4.70;99.90;;;;;;5012307;28;20008;-63
2022/12/17 15:32:10;;;;;;;;;;;-4.80;99.90;;;;;;5011825;28;19925;-63
2022/12/17 15:34:38;;;;;;;;;;;-4.70;99.90;;;;;;5011829;28;19925;-63
2022/12/17 15:37:05;;;;;;;;;;;-4.60;99.90;;;;;;5011712;28;19933;-63
2022/12/17 15:39:33;;;;;;;;;;;-4.60;99.90;;;;;;5011474;28;19926;-64
2022/12/17 15:44:50;;;;;;;;;;;-4.50;99.90;;;;;;5012215;28;20135;-63
2022/12/17 15:47:17;;;;;;;;;;;-4.50;99.90;;;;;;5011933;28;20310;-63
2022/12/17 15:49:45;;;;;;;;;;;-4.50;99.90;;;;;;5015443;28;20317;-63
2022/12/17 15:52:13;;;;;;;;;;;-4.50;99.90;;;;;;5014521;28;19936;-63
2022/12/17 15:54:41;;;;;;;;;;;-4.60;99.90;;;;;;5011762;28;19951;-63
2022/12/17 15:57:09;;;;;;;;;;;-4.50;99.90;;;;;;5011722;28;20040;-63
2022/12/17 15:59:44;;;;;;;;;;;-4.50;99.90;;;;;;5011342;28;19997;-64
2022/12/17 16:02:13;;;;;;;;;;;-4.70;99.90;;;;;;5011666;28;19925;-63
2022/12/17 16:04:41;;;;;;;;;;;-4.70;99.90;;;;;;5011124;28;19940;-62
2022/12/17 16:07:09;;;;;;;;;;;-4.60;99.90;;;;;;5011405;28;19926;-63
2022/12/17 16:09:37;;;;;;;;;;;-4.50;99.90;;;;;;5011086;28;19926;-64
2022/12/17 16:12:05;;;;;;;;;;;-4.50;99.90;;;;;;5011566;28;20019;-63
2022/12/17 16:14:32;;;;;;;;;;;-4.50;99.90;;;;;;5011766;28;19936;-63
2022/12/17 16:17:00;;;;;;;;;;;-4.40;99.90;;;;;;5011420;28;19932;-63
2022/12/17 16:19:29;;;;;;;;;;;-4.40;99.90;;;;;;5019218;28;19949;-63
2022/12/17 16:21:57;;;;;;;;;;;-4.30;99.90;;;;;;5016158;28;20105;-63
2022/12/17 16:24:25;;;;;;;;;;;-4.30;99.90;;;;;;5011305;28;19929;-62
2022/12/17 16:26:52;;;;;;;;;;;-4.20;99.90;;;;;;5011596;28;20415;-63
2022/12/17 16:29:20;;;;;;;;;;;-4.10;99.90;;;;;;5011576;28;20520;-63
2022/12/17 16:31:48;;;;;;;;;;;-4.20;99.90;;;;;;5010838;28;19930;-63
2022/12/17 16:34:16;;;;;;;;;;;-4.30;99.90;;;;;;5011375;28;19925;-63
2022/12/17 16:36:45;;;;;;;;;;;-4.40;99.90;;;;;;5028564;28;19925;-63
2022/12/17 16:39:15;;;;;;;;;;;-4.50;99.90;;;;;;5031078;28;20557;-64
2022/12/17 16:41:42;;;;;;;;;;;-4.60;99.90;;;;;;5024263;28;19932;-63
2022/12/17 16:44:10;;;;;;;;;;;-4.60;99.90;;;;;;5030940;28;19925;-63
2022/12/17 16:46:39;;;;;;;;;;;-4.60;99.90;;;;;;5034879;28;19925;-63
2022/12/17 16:49:08;;;;;;;;;;;-4.50;99.90;;;;;;5028954;28;20399;-63
2022/12/17 16:51:36;;;;;;;;;;;-4.60;99.90;;;;;;5028359;28;19925;-63
2022/12/17 16:54:06;;;;;;;;;;;-4.50;99.90;;;;;;5034710;28;20011;-63
2022/12/17 16:56:34;;;;;;;;;;;-4.60;99.90;;;;;;5024951;28;20309;-63
2022/12/17 16:59:08;;;;;;;;;;;-4.60;99.90;;;;;;5015064;28;19926;-63
2022/12/17 17:01:36;;;;;;;;;;;-4.60;99.90;;;;;;5014107;28;19926;-63
2022/12/17 17:04:04;;;;;;;;;;;-4.70;99.90;;;;;;5014564;28;19971;-63
2022/12/17 17:06:32;;;;;;;;;;;-4.70;99.90;;;;;;5014701;28;19929;-63
2022/12/17 17:09:03;;;;;;;;;;;-4.80;99.90;;;;;;5023985;28;19940;-63
2022/12/17 17:11:32;;;;;;;;;;;-4.90;99.90;;;;;;5033673;28;20417;-64
2022/12/17 17:14:00;;;;;;;;;;;-4.90;99.90;;;;;;5029471;28;19925;-63
2022/12/17 17:16:27;;;;;;;;;;;-4.90;99.90;;;;;;5014284;28;19968;-63
2022/12/17 17:18:56;;;;;;;;;;;-4.90;99.90;;;;;;5020549;28;19929;-63
2022/12/17 17:21:25;;;;;;;;;;;-4.90;99.90;;;;;;5024985;28;19929;-63
2022/12/17 17:23:54;;;;;;;;;;;-5.00;99.90;;;;;;5022510;28;20391;-63
2022/12/17 17:26:24;;;;;;;;;;;-5.00;99.90;;;;;;5014296;28;19925;-63
2022/12/17 17:28:53;;;;;;;;;;;-5.10;99.90;;;;;;5027539;28;19925;-63
2022/12/17 17:31:21;;;;;;;;;;;-5.10;99.90;;;;;;5025112;28;19929;-63
2022/12/17 17:33:57;;;;;;;;;;;-5.10;99.90;;;;;;5013951;28;19979;-62
2022/12/17 17:36:26;;;;;;;;;;;-5.20;99.90;;;;;;5014135;28;19932;-63
2022/12/17 17:38:55;;;;;;;;;;;-5.20;99.90;;;;;;5014544;28;19975;-63
2022/12/17 17:41:23;;;;;;;;;;;-5.20;99.90;;;;;;5013531;28;19956;-63
2022/12/17 17:43:54;;;;;;;;;;;-5.20;99.90;;;;;;5020551;28;19926;-63
2022/12/17 17:46:22;;;;;;;;;;;-5.20;99.90;;;;;;5031521;28;19943;-62
2022/12/17 17:48:50;;;;;;;;;;;-5.30;99.90;;;;;;5016896;28;19925;-63
2022/12/17 17:51:31;;;;;;;;;;;-5.30;99.90;;;;;;5021362;28;20431;-62
2022/12/17 17:54:19;;;;;;;;;;;-5.40;99.90;;;;;;5013484;28;20299;-62
2022/12/17 17:56:46;;;;;;;;;;;-5.40;99.90;;;;;;5014021;28;19932;-62
2022/12/17 17:59:18;;;;;;;;;;;-5.30;99.90;;;;;;5013421;28;19925;-62
2022/12/17 18:01:46;;;;;;;;;;;-5.30;99.90;;;;;;5012982;28;19968;-63
2022/12/17 18:04:15;;;;;;;;;;;-5.30;99.90;;;;;;5013725;28;20394;-63
2022/12/17 18:06:44;;;;;;;;;;;-5.30;99.90;;;;;;5013821;28;19929;-62
2022/12/17 18:09:31;;;;;;;;;;;-5.30;99.90;;;;;;5012759;28;19929;-62
2022/12/17 18:13:53;;;;;;;;;;;-5.30;99.90;;;;;;5013157;28;19930;-63
2022/12/17 18:14:47;;;;;;;;;;;-5.30;99.90;;;;;;5013471;28;20024;-63
2022/12/17 18:17:35;;;;;;;;;;;-5.30;99.90;;;;;;5013427;28;19926;-63
2022/12/17 18:20:03;;;;;;;;;;;-5.50;99.90;;;;;;5021085;28;19929;-62
2022/12/17 18:22:31;;;;;;;;;;;-5.40;99.90;;;;;;5055796;22;19931;-64
2022/12/17 18:24:59;;;;;;;;;;;-5.50;99.90;;;;;;5053307;28;19935;-64
2022/12/17 18:27:27;;;;;;;;;;;-5.40;99.90;;;;;;5053078;28;19956;-64
2022/12/17 18:29:56;;;;;;;;;;;-5.40;99.90;;;;;;5052500;28;20378;-64
2022/12/17 18:32:24;;;;;;;;;;;-5.30;99.90;;;;;;5052539;28;19939;-63
2022/12/17 18:34:51;;;;;;;;;;;-5.50;99.90;;;;;;5052589;28;20378;-64
2022/12/17 18:37:19;;;;;;;;;;;-5.60;99.90;;;;;;5047160;28;20317;-63
2022/12/17 18:39:48;;;;;;;;;;;-5.60;99.90;;;;;;5048354;28;19929;-64
2022/12/17 18:45:03;;;;;;;;;;;-5.50;99.90;;;;;;5052786;28;19947;-64
2022/12/17 18:47:30;;;;;;;;;;;-5.50;99.90;;;;;;5052825;28;19932;-64
2022/12/17 18:49:58;;;;;;;;;;;-5.40;99.90;;;;;;5053423;28;19928;-64
2022/12/17 18:52:26;;;;;;;;;;;-5.40;99.90;;;;;;5056486;28;20015;-64
2022/12/17 18:54:54;;;;;;;;;;;-5.50;99.90;;;;;;5065190;28;19931;-64
2022/12/17 18:57:21;;;;;;;;;;;-5.50;99.90;;;;;;5055888;28;20406;-64
2022/12/17 18:59:49;;;;;;;;;;;-5.50;99.90;;;;;;5050835;28;19932;-63
2022/12/17 19:02:18;;;;;;;;;;;-5.50;99.90;;;;;;5046923;28;19933;-64
2022/12/17 19:04:46;;;;;;;;;;;-5.50;99.90;;;;;;5051697;28;19933;-64
2022/12/17 19:07:14;;;;;;;;;;;-5.40;99.90;;;;;;5051944;28;20313;-64
2022/12/17 19:09:42;;;;;;;;;;;-5.30;99.90;;;;;;5051086;28;20412;-64
2022/12/17 19:12:09;;;;;;;;;;;-5.30;99.90;;;;;;5051817;28;19928;-64
2022/12/17 19:14:37;;;;;;;;;;;-5.30;99.90;;;;;;5051838;28;19925;-64
2022/12/17 19:17:05;;;;;;;;;;;-5.30;99.90;;;;;;5051912;28;19931;-64
2022/12/17 19:19:34;;;;;;;;;;;-5.20;99.90;;;;;;5050793;28;20382;-64
2022/12/17 19:22:02;;;;;;;;;;;-5.30;99.90;;;;;;5051114;28;19924;-65
2022/12/17 19:24:30;;;;;;;;;;;-5.30;99.90;;;;;;5051207;28;19972;-64
2022/12/17 19:26:57;;;;;;;;;;;-5.40;99.90;;;;;;5052067;28;19931;-64
2022/12/17 19:29:25;;;;;;;;;;;-5.50;99.90;;;;;;5051662;28;19924;-63
2022/12/17 19:31:53;;;;;;;;;;;-5.60;99.90;;;;;;5050628;28;20012;-64
2022/12/17 19:34:21;;;;;;;;;;;-5.50;99.90;;;;;;5051461;28;19975;-64
2022/12/17 19:36:50;;;;;;;;;;;-5.60;99.90;;;;;;5051565;28;19928;-64
2022/12/17 19:39:19;;;;;;;;;;;-5.50;99.90;;;;;;5051115;28;19928;-64
2022/12/17 19:41:48;;;;;;;;;;;-5.60;99.90;;;;;;5050641;28;19925;-63
2022/12/17 19:44:18;;;;;;;;;;;-5.50;99.90;;;;;;5050564;28;19925;-64
2022/12/17 19:46:46;;;;;;;;;;;-5.70;99.90;;;;;;5050740;28;20397;-64
2022/12/17 19:49:15;;;;;;;;;;;-5.70;99.90;;;;;;5052422;28;20019;-64
2022/12/17 19:51:43;;;;;;;;;;;-5.70;99.90;;;;;;5050074;28;20571;-64
2022/12/17 19:54:13;;;;;;;;;;;-5.60;99.90;;;;;;5051320;28;19936;-64
2022/12/17 19:56:42;;;;;;;;;;;-5.60;99.90;;;;;;5051260;28;19928;-65
2022/12/17 19:59:09;;;;;;;;;;;-5.60;99.90;;;;;;5051349;28;20751;-65
2022/12/17 20:01:39;;;;;;;;;;;-5.70;99.90;;;;;;5038993;28;19932;-64
2022/12/17 20:04:07;;;;;;;;;;;-5.80;99.90;;;;;;5045024;28;19925;-65
2022/12/17 20:06:35;;;;;;;;;;;-5.80;99.90;;;;;;5050680;28;20290;-65
2022/12/17 20:09:04;;;;;;;;;;;-5.80;99.90;;;;;;5050946;28;19931;-64
2022/12/17 20:11:33;;;;;;;;;;;-5.90;99.90;;;;;;5049445;28;19932;-65
2022/12/17 20:14:02;;;;;;;;;;;-5.90;99.90;;;;;;5043921;28;19929;-64
2022/12/17 20:16:30;;;;;;;;;;;-5.90;99.90;;;;;;5051678;28;20007;-63
2022/12/17 20:18:58;;;;;;;;;;;-5.90;99.90;;;;;;5051310;28;19947;-65
2022/12/17 20:21:26;;;;;;;;;;;-6.00;99.90;;;;;;5049409;28;19931;-64
2022/12/17 20:23:54;;;;;;;;;;;-6.00;99.90;;;;;;5050296;28;19925;-65
2022/12/17 20:26:23;;;;;;;;;;;-6.00;99.90;;;;;;5049379;28;20450;-64
2022/12/17 20:28:54;;;;;;;;;;;-6.00;99.90;;;;;;5050703;28;19925;-65
2022/12/17 20:31:22;;;;;;;;;;;-6.00;99.90;;;;;;5050380;28;19932;-64
2022/12/17 20:33:50;;;;;;;;;;;-5.80;99.90;;;;;;5050710;28;19929;-64
2022/12/17 20:36:18;;;;;;;;;;;-5.80;99.90;;;;;;5051029;28;20440;-64
2022/12/17 20:38:46;;;;;;;;;;;-5.70;99.90;;;;;;5050400;28;20883;-64
2022/12/17 20:41:14;;;;;;;;;;;-5.60;99.90;;;;;;5050081;28;19931;-65
2022/12/17 20:43:42;;;;;;;;;;;-5.60;99.90;;;;;;5049536;28;19935;-64
2022/12/17 20:46:11;;;;;;;;;;;-5.60;99.90;;;;;;5050846;28;20397;-64
2022/12/17 20:48:40;;;;;;;;;;;-5.60;99.90;;;;;;5050495;28;19924;-65
2022/12/17 20:51:09;;;;;;;;;;;-5.60;99.90;;;;;;5052260;28;20354;-65
2022/12/17 20:53:37;;;;;;;;;;;-5.60;99.90;;;;;;5040068;28;19929;-64
2022/12/17 20:56:06;;;;;;;;;;;-5.60;99.90;;;;;;5050534;28;20005;-64
2022/12/17 20:58:34;;;;;;;;;;;-5.60;99.90;;;;;;5050084;28;19971;-64
2022/12/17 21:01:03;;;;;;;;;;;-5.70;99.90;;;;;;5050073;28;19935;-64
2022/12/17 21:03:32;;;;;;;;;;;-5.70;99.90;;;;;;5048750;28;20011;-64
2022/12/17 21:06:04;;;;;;;;;;;-5.80;99.90;;;;;;5050743;28;20501;-64
2022/12/17 21:08:32;;;;;;;;;;;-5.80;99.90;;;;;;5050318;28;20408;-65
2022/12/17 21:11:00;;;;;;;;;;;-5.90;99.90;;;;;;5049930;28;19928;-64
2022/12/17 21:13:30;;;;;;;;;;;-5.90;99.90;;;;;;5050099;28;19933;-64
2022/12/17 21:15:59;;;;;;;;;;;-6.10;99.90;;;;;;5050791;28;19925;-64
2022/12/17 21:18:27;;;;;;;;;;;-6.20;99.90;;;;;;5050532;28;19932;-65
2022/12/17 21:20:57;;;;;;;;;;;-6.30;99.90;;;;;;5059545;28;19936;-65
2022/12/17 21:23:25;;;;;;;;;;;-6.40;99.90;;;;;;5049501;28;20028;-64
2022/12/17 21:25:57;;;;;;;;;;;-6.50;99.90;;;;;;5050579;28;19931;-64
2022/12/17 21:28:25;;;;;;;;;;;-6.50;99.90;;;;;;5050401;28;20413;-65
2022/12/17 21:30:53;;;;;;;;;;;-6.40;99.90;;;;;;5050429;28;19951;-63
2022/12/17 21:33:21;;;;;;;;;;;-6.30;99.90;;;;;;5052746;28;19925;-64
2022/12/17 21:35:49;;;;;;;;;;;-6.30;99.90;;;;;;5045367;28;19979;-64
2022/12/17 21:38:18;;;;;;;;;;;-6.40;99.90;;;;;;5053659;28;20407;-64
2022/12/17 21:40:45;;;;;;;;;;;-6.40;99.90;;;;;;5053209;28;19984;-65
2022/12/17 21:43:13;;;;;;;;;;;-6.40;99.90;;;;;;5053579;28;20316;-64
2022/12/17 21:45:41;;;;;;;;;;;-6.40;99.90;;;;;;5052879;28;20024;-64
2022/12/17 21:48:10;;;;;;;;;;;-6.50;99.90;;;;;;5052794;28;19924;-64
2022/12/17 21:50:42;;;;;;;;;;;-6.50;99.90;;;;;;5061959;28;19928;-65
2022/12/17 21:53:11;;;;;;;;;;;-6.50;99.90;;;;;;5053123;28;19948;-63
2022/12/17 21:55:40;;;;;;;;;;;-6.60;99.90;;;;;;5053104;28;19935;-64
2022/12/17 21:58:08;;;;;;;;;;;-6.60;99.90;;;;;;5039834;28;20019;-64
2022/12/17 22:00:36;;;;;;;;;;;-6.60;99.90;;;;;;5050924;28;19924;-65
2022/12/17 22:03:04;;;;;;;;;;;-6.60;99.90;;;;;;5052987;28;19925;-65
2022/12/17 22:05:32;;;;;;;;;;;-6.70;99.90;;;;;;5053118;28;19970;-65
2022/12/17 22:07:59;;;;;;;;;;;-6.80;99.90;;;;;;5053332;28;19935;-64
2022/12/17 22:10:27;;;;;;;;;;;-6.80;99.90;;;;;;5052224;28;19932;-64
2022/12/17 22:16:05;;;;;;;;;;;-7.00;99.90;;;;;;5053310;28;20020;-64
2022/12/17 22:18:33;;;;;;;;;;;-6.90;99.90;;;;;;5054383;28;19939;-64
2022/12/17 22:21:01;;;;;;;;;;;-7.00;99.90;;;;;;5053470;28;20412;-70
2022/12/17 22:23:29;;;;;;;;;;;-7.10;99.90;;;;;;5052283;28;19935;-64
2022/12/17 22:25:57;;;;;;;;;;;-7.10;99.90;;;;;;5052690;28;19960;-64
2022/12/17 22:28:26;;;;;;;;;;;-7.00;99.90;;;;;;5052843;28;19960;-65
2022/12/17 22:33:40;;;;;;;;;;;-7.20;99.90;;;;;;5052750;28;19925;-64
2022/12/17 22:36:28;;;;;;;;;;;-7.20;99.90;;;;;;5052905;28;19925;-64
2022/12/17 22:39:16;;;;;;;;;;;-7.30;99.90;;;;;;5052427;28;19925;-64
2022/12/17 22:45:10;;;;;;;;;;;-7.60;99.90;;;;;;5052207;28;19925;-64
2022/12/17 22:47:40;;;;;;;;;;;-7.60;99.90;;;;;;5052346;28;19964;-64
2022/12/17 22:50:08;;;;;;;;;;;-7.70;99.90;;;;;;5052208;28;20385;-64
2022/12/17 22:52:37;;;;;;;;;;;-7.60;99.90;;;;;;5038666;28;19968;-65
2022/12/17 22:55:06;;;;;;;;;;;-7.60;99.90;;;;;;5038814;28;19929;-64
2022/12/17 22:57:34;;;;;;;;;;;-7.60;99.90;;;;;;5036255;28;19936;-64
2022/12/17 23:00:11;;;;;;;;;;;-7.60;99.90;;;;;;5017459;28;19928;-64
2022/12/17 23:02:40;;;;;;;;;;;-7.60;99.90;;;;;;5034989;28;20379;-64
2022/12/17 23:05:08;;;;;;;;;;;-7.60;99.90;;;;;;5031751;28;19929;-65
2022/12/17 23:07:39;;;;;;;;;;;-7.60;99.90;;;;;;5042427;28;20040;-62
2022/12/17 23:10:08;;;;;;;;;;;-7.60;99.90;;;;;;5049397;28;19975;-64
2022/12/17 23:12:54;;;;;;;;;;;-7.60;99.90;;;;;;5035540;28;19929;-63
2022/12/17 23:15:24;;;;;;;;;;;-7.60;99.90;;;;;;5032455;28;19969;-63
2022/12/17 23:17:56;;;;;;;;;;;-7.60;99.90;;;;;;5014706;28;19972;-63
2022/12/17 23:20:24;;;;;;;;;;;-7.50;99.90;;;;;;5061169;28;19935;-63
2022/12/17 23:22:52;;;;;;;;;;;-7.50;99.90;;;;;;5070696;28;19931;-63
2022/12/17 23:25:20;;;;;;;;;;;-7.50;99.90;;;;;;5051887;28;20364;-63
2022/12/17 23:27:48;;;;;;;;;;;-7.50;99.90;;;;;;5052165;28;19928;-63
2022/12/17 23:30:16;;;;;;;;;;;-7.50;99.90;;;;;;5051465;28;19925;-63
2022/12/17 23:32:44;;;;;;;;;;;-7.50;99.90;;;;;;5052289;28;20309;-63
2022/12/17 23:35:13;;;;;;;;;;;-7.50;99.90;;;;;;5051987;28;20298;-63
2022/12/17 23:37:42;;;;;;;;;;;-7.50;99.90;;;;;;5052388;28;19963;-63
2022/12/17 23:40:10;;;;;;;;;;;-7.50;99.90;;;;;;5051124;28;19931;-63
2022/12/17 23:42:38;;;;;;;;;;;-7.50;99.90;;;;;;5051814;28;20402;-63
2022/12/17 23:45:06;;;;;;;;;;;-7.50;99.90;;;;;;5051251;28;19974;-63
2022/12/17 23:47:34;;;;;;;;;;;-7.50;99.90;;;;;;5052258;28;19931;-63
2022/12/17 23:50:01;;;;;;;;;;;-7.50;99.90;;;;;;5059450;28;19925;-63
2022/12/17 23:52:30;;;;;;;;;;;-7.40;99.90;;;;;;5070783;28;20294;-64
2022/12/17 23:54:58;;;;;;;;;;;-7.40;99.90;;;;;;5071396;28;20381;-64
2022/12/17 23:57:26;;;;;;;;;;;-7.30;99.90;;;;;;5071725;28;19925;-63
2022/12/17 23:59:53;;;;;;;;;;;-7.30;99.90;;;;;;5059805;28;19931;-63
